sensor_id;sensor_type;location;lat;lon;timestamp;P1;durP1;ratioP1;P2;durP2;ratioP2
4365;SDS011;2196;47.422;9.656;2024-01-10T00:00:20;42.63;;;21.43;;
4365;SDS011;2196;47.422;9.656;2024-01-10T00:02:47;48.23;;;23.27;;
4365;SDS011;2196;47.422;9.656;2024-01-10T00:05:14;43.47;;;22.10;;
4365;SDS011;2196;47.422;9.656;2024-01-10T00:07:41;43.43;;;20.93;;
4365;SDS011;2196;47.422;9.656;2024-01-10T00:10:08;42.97;;;22.83;;
4365;SDS011;2196;47.422;9.656;2024-01-10T00:12:37;44.57;;;21.47;;
4365;SDS011;2196;47.422;9.656;2024-01-10T00:15:04;43.90;;;23.40;;
4365;SDS011;2196;47.422;9.656;2024-01-10T00:17:32;43.80;;;21.50;;
4365;SDS011;2196;47.422;9.656;2024-01-10T00:19:59;43.07;;;21.80;;
4365;SDS011;2196;47.422;9.656;2024-01-10T00:22:26;49.77;;;23.63;;
4365;SDS011;2196;47.422;9.656;2024-01-10T00:24:53;40.77;;;21.17;;
4365;SDS011;2196;47.422;9.656;2024-01-10T00:27:20;47.47;;;22.97;;
4365;SDS011;2196;47.422;9.656;2024-01-10T00:29:48;36.67;;;19.67;;
4365;SDS011;2196;47.422;9.656;2024-01-10T00:32:16;61.10;;;26.13;;
4365;SDS011;2196;47.422;9.656;2024-01-10T00:34:43;40.83;;;22.80;;
4365;SDS011;2196;47.422;9.656;2024-01-10T00:37:10;46.53;;;22.20;;
4365;SDS011;2196;47.422;9.656;2024-01-10T00:39:37;48.00;;;22.93;;
4365;SDS011;2196;47.422;9.656;2024-01-10T00:42:05;56.10;;;24.63;;
4365;SDS011;2196;47.422;9.656;2024-01-10T00:44:31;53.97;;;23.27;;
4365;SDS011;2196;47.422;9.656;2024-01-10T00:47:02;43.07;;;21.90;;
4365;SDS011;2196;47.422;9.656;2024-01-10T00:49:30;47.13;;;22.73;;
4365;SDS011;2196;47.422;9.656;2024-01-10T00:51:56;51.17;;;24.20;;
4365;SDS011;2196;47.422;9.656;2024-01-10T00:54:23;53.83;;;22.57;;
4365;SDS011;2196;47.422;9.656;2024-01-10T00:56:50;42.70;;;21.67;;
4365;SDS011;2196;47.422;9.656;2024-01-10T00:59:17;44.93;;;23.50;;
4365;SDS011;2196;47.422;9.656;2024-01-10T01:01:44;46.37;;;22.57;;
4365;SDS011;2196;47.422;9.656;2024-01-10T01:04:13;45.20;;;22.57;;
4365;SDS011;2196;47.422;9.656;2024-01-10T01:06:40;44.33;;;22.63;;
4365;SDS011;2196;47.422;9.656;2024-01-10T01:09:07;41.77;;;21.60;;
4365;SDS011;2196;47.422;9.656;2024-01-10T01:11:34;45.53;;;23.13;;
4365;SDS011;2196;47.422;9.656;2024-01-10T01:14:01;46.87;;;22.50;;
4365;SDS011;2196;47.422;9.656;2024-01-10T01:16:28;40.77;;;20.47;;
4365;SDS011;2196;47.422;9.656;2024-01-10T01:18:55;42.23;;;22.07;;
4365;SDS011;2196;47.422;9.656;2024-01-10T01:21:23;46.10;;;22.33;;
4365;SDS011;2196;47.422;9.656;2024-01-10T01:23:50;44.90;;;22.60;;
4365;SDS011;2196;47.422;9.656;2024-01-10T01:26:17;43.57;;;21.73;;
4365;SDS011;2196;47.422;9.656;2024-01-10T01:28:44;44.30;;;20.43;;
4365;SDS011;2196;47.422;9.656;2024-01-10T01:31:11;54.60;;;24.77;;
4365;SDS011;2196;47.422;9.656;2024-01-10T01:33:38;51.57;;;23.80;;
4365;SDS011;2196;47.422;9.656;2024-01-10T01:36:05;47.33;;;22.10;;
4365;SDS011;2196;47.422;9.656;2024-01-10T01:38:34;39.60;;;21.33;;
4365;SDS011;2196;47.422;9.656;2024-01-10T01:41:01;42.67;;;21.20;;
4365;SDS011;2196;47.422;9.656;2024-01-10T01:43:31;46.80;;;23.30;;
4365;SDS011;2196;47.422;9.656;2024-01-10T01:45:58;49.70;;;24.40;;
4365;SDS011;2196;47.422;9.656;2024-01-10T01:48:25;46.27;;;23.23;;
4365;SDS011;2196;47.422;9.656;2024-01-10T01:50:53;50.37;;;23.77;;
4365;SDS011;2196;47.422;9.656;2024-01-10T01:53:23;49.63;;;24.67;;
4365;SDS011;2196;47.422;9.656;2024-01-10T01:55:51;49.43;;;24.17;;
4365;SDS011;2196;47.422;9.656;2024-01-10T01:58:19;52.53;;;23.47;;
4365;SDS011;2196;47.422;9.656;2024-01-10T02:00:49;44.40;;;23.87;;
4365;SDS011;2196;47.422;9.656;2024-01-10T02:03:17;52.00;;;25.20;;
4365;SDS011;2196;47.422;9.656;2024-01-10T02:05:45;56.73;;;24.67;;
4365;SDS011;2196;47.422;9.656;2024-01-10T02:08:12;49.27;;;23.03;;
4365;SDS011;2196;47.422;9.656;2024-01-10T02:10:39;48.03;;;23.90;;
4365;SDS011;2196;47.422;9.656;2024-01-10T02:13:08;44.13;;;21.83;;
4365;SDS011;2196;47.422;9.656;2024-01-10T02:15:36;47.07;;;23.10;;
4365;SDS011;2196;47.422;9.656;2024-01-10T02:18:04;41.40;;;21.57;;
4365;SDS011;2196;47.422;9.656;2024-01-10T02:20:31;50.63;;;22.83;;
4365;SDS011;2196;47.422;9.656;2024-01-10T02:22:59;45.03;;;20.40;;
4365;SDS011;2196;47.422;9.656;2024-01-10T02:25:27;48.30;;;24.27;;
4365;SDS011;2196;47.422;9.656;2024-01-10T02:27:54;47.73;;;21.97;;
4365;SDS011;2196;47.422;9.656;2024-01-10T02:30:21;54.37;;;25.90;;
4365;SDS011;2196;47.422;9.656;2024-01-10T02:32:48;46.53;;;22.93;;
4365;SDS011;2196;47.422;9.656;2024-01-10T02:35:15;47.70;;;23.63;;
4365;SDS011;2196;47.422;9.656;2024-01-10T02:37:42;49.10;;;25.03;;
4365;SDS011;2196;47.422;9.656;2024-01-10T02:40:10;51.67;;;23.80;;
4365;SDS011;2196;47.422;9.656;2024-01-10T02:42:39;48.97;;;25.03;;
4365;SDS011;2196;47.422;9.656;2024-01-10T02:45:06;50.43;;;22.80;;
4365;SDS011;2196;47.422;9.656;2024-01-10T02:47:33;46.00;;;23.47;;
4365;SDS011;2196;47.422;9.656;2024-01-10T02:50:02;47.70;;;23.73;;
4365;SDS011;2196;47.422;9.656;2024-01-10T02:52:29;47.90;;;23.60;;
4365;SDS011;2196;47.422;9.656;2024-01-10T02:54:56;49.17;;;23.23;;
4365;SDS011;2196;47.422;9.656;2024-01-10T02:57:23;54.63;;;23.90;;
4365;SDS011;2196;47.422;9.656;2024-01-10T02:59:51;50.37;;;23.63;;
4365;SDS011;2196;47.422;9.656;2024-01-10T03:02:18;48.20;;;23.97;;
4365;SDS011;2196;47.422;9.656;2024-01-10T03:04:46;45.50;;;23.27;;
4365;SDS011;2196;47.422;9.656;2024-01-10T03:07:13;52.07;;;24.03;;
4365;SDS011;2196;47.422;9.656;2024-01-10T03:09:41;52.10;;;25.03;;
4365;SDS011;2196;47.422;9.656;2024-01-10T03:12:08;47.23;;;21.53;;
4365;SDS011;2196;47.422;9.656;2024-01-10T03:14:37;51.83;;;25.83;;
4365;SDS011;2196;47.422;9.656;2024-01-10T03:17:08;49.73;;;23.73;;
4365;SDS011;2196;47.422;9.656;2024-01-10T03:19:35;48.63;;;22.70;;
4365;SDS011;2196;47.422;9.656;2024-01-10T03:22:08;48.37;;;21.90;;
4365;SDS011;2196;47.422;9.656;2024-01-10T03:24:35;52.60;;;23.83;;
4365;SDS011;2196;47.422;9.656;2024-01-10T03:27:03;44.87;;;22.53;;
4365;SDS011;2196;47.422;9.656;2024-01-10T03:29:30;46.53;;;22.83;;
4365;SDS011;2196;47.422;9.656;2024-01-10T03:31:57;44.47;;;22.73;;
4365;SDS011;2196;47.422;9.656;2024-01-10T03:34:26;48.80;;;23.80;;
4365;SDS011;2196;47.422;9.656;2024-01-10T03:36:53;48.87;;;23.17;;
4365;SDS011;2196;47.422;9.656;2024-01-10T03:39:20;49.37;;;23.07;;
4365;SDS011;2196;47.422;9.656;2024-01-10T03:41:47;47.47;;;23.77;;
4365;SDS011;2196;47.422;9.656;2024-01-10T03:44:14;47.93;;;23.40;;
4365;SDS011;2196;47.422;9.656;2024-01-10T03:46:41;45.50;;;22.97;;
4365;SDS011;2196;47.422;9.656;2024-01-10T03:49:08;46.83;;;23.20;;
4365;SDS011;2196;47.422;9.656;2024-01-10T03:51:36;49.17;;;24.40;;
4365;SDS011;2196;47.422;9.656;2024-01-10T03:54:05;46.77;;;22.77;;
4365;SDS011;2196;47.422;9.656;2024-01-10T03:56:32;46.50;;;21.80;;
4365;SDS011;2196;47.422;9.656;2024-01-10T03:58:59;52.60;;;23.63;;
4365;SDS011;2196;47.422;9.656;2024-01-10T04:01:27;50.97;;;24.73;;
4365;SDS011;2196;47.422;9.656;2024-01-10T04:03:54;52.00;;;23.63;;
4365;SDS011;2196;47.422;9.656;2024-01-10T04:06:21;48.80;;;23.97;;
4365;SDS011;2196;47.422;9.656;2024-01-10T04:08:49;42.23;;;21.63;;
4365;SDS011;2196;47.422;9.656;2024-01-10T04:11:16;46.30;;;23.53;;
4365;SDS011;2196;47.422;9.656;2024-01-10T04:13:43;46.47;;;23.73;;
4365;SDS011;2196;47.422;9.656;2024-01-10T04:16:10;45.13;;;23.90;;
4365;SDS011;2196;47.422;9.656;2024-01-10T04:18:38;51.27;;;24.27;;
4365;SDS011;2196;47.422;9.656;2024-01-10T04:21:05;51.43;;;26.00;;
4365;SDS011;2196;47.422;9.656;2024-01-10T04:23:33;46.40;;;23.27;;
4365;SDS011;2196;47.422;9.656;2024-01-10T04:26:02;50.60;;;25.20;;
4365;SDS011;2196;47.422;9.656;2024-01-10T04:28:29;45.37;;;24.53;;
4365;SDS011;2196;47.422;9.656;2024-01-10T04:30:56;48.57;;;23.20;;
4365;SDS011;2196;47.422;9.656;2024-01-10T04:33:23;56.17;;;25.47;;
4365;SDS011;2196;47.422;9.656;2024-01-10T04:35:50;52.47;;;24.90;;
4365;SDS011;2196;47.422;9.656;2024-01-10T04:38:17;55.77;;;24.73;;
4365;SDS011;2196;47.422;9.656;2024-01-10T04:40:44;49.60;;;24.73;;
4365;SDS011;2196;47.422;9.656;2024-01-10T04:43:12;55.90;;;26.47;;
4365;SDS011;2196;47.422;9.656;2024-01-10T04:45:39;55.80;;;26.67;;
4365;SDS011;2196;47.422;9.656;2024-01-10T04:48:06;49.73;;;25.23;;
4365;SDS011;2196;47.422;9.656;2024-01-10T04:50:34;54.70;;;26.00;;
4365;SDS011;2196;47.422;9.656;2024-01-10T04:53:01;47.00;;;23.83;;
4365;SDS011;2196;47.422;9.656;2024-01-10T04:55:28;52.60;;;25.50;;
4365;SDS011;2196;47.422;9.656;2024-01-10T04:57:55;53.30;;;26.10;;
4365;SDS011;2196;47.422;9.656;2024-01-10T05:00:23;54.37;;;25.07;;
4365;SDS011;2196;47.422;9.656;2024-01-10T05:02:50;45.93;;;24.10;;
4365;SDS011;2196;47.422;9.656;2024-01-10T05:05:17;51.23;;;24.80;;
4365;SDS011;2196;47.422;9.656;2024-01-10T05:07:48;48.10;;;23.30;;
4365;SDS011;2196;47.422;9.656;2024-01-10T05:10:15;49.83;;;24.47;;
4365;SDS011;2196;47.422;9.656;2024-01-10T05:12:42;55.33;;;24.17;;
4365;SDS011;2196;47.422;9.656;2024-01-10T05:15:09;47.77;;;24.63;;
4365;SDS011;2196;47.422;9.656;2024-01-10T05:17:38;52.13;;;25.63;;
4365;SDS011;2196;47.422;9.656;2024-01-10T05:20:05;52.60;;;25.80;;
4365;SDS011;2196;47.422;9.656;2024-01-10T05:22:34;46.30;;;24.50;;
4365;SDS011;2196;47.422;9.656;2024-01-10T05:25:01;46.03;;;24.13;;
4365;SDS011;2196;47.422;9.656;2024-01-10T05:27:29;48.23;;;25.50;;
4365;SDS011;2196;47.422;9.656;2024-01-10T05:29:56;50.83;;;23.73;;
4365;SDS011;2196;47.422;9.656;2024-01-10T05:32:24;49.10;;;24.60;;
4365;SDS011;2196;47.422;9.656;2024-01-10T05:34:53;51.03;;;24.37;;
4365;SDS011;2196;47.422;9.656;2024-01-10T05:37:20;52.07;;;24.07;;
4365;SDS011;2196;47.422;9.656;2024-01-10T05:39:47;50.90;;;24.97;;
4365;SDS011;2196;47.422;9.656;2024-01-10T05:42:14;52.20;;;25.93;;
4365;SDS011;2196;47.422;9.656;2024-01-10T05:44:41;50.13;;;23.23;;
4365;SDS011;2196;47.422;9.656;2024-01-10T05:47:08;48.13;;;23.87;;
4365;SDS011;2196;47.422;9.656;2024-01-10T05:49:35;50.33;;;24.60;;
4365;SDS011;2196;47.422;9.656;2024-01-10T05:52:07;50.07;;;25.30;;
4365;SDS011;2196;47.422;9.656;2024-01-10T05:54:34;52.93;;;23.33;;
4365;SDS011;2196;47.422;9.656;2024-01-10T05:57:03;50.80;;;24.43;;
4365;SDS011;2196;47.422;9.656;2024-01-10T05:59:30;51.07;;;26.07;;
4365;SDS011;2196;47.422;9.656;2024-01-10T06:01:57;52.33;;;24.83;;
4365;SDS011;2196;47.422;9.656;2024-01-10T06:04:24;56.57;;;26.10;;
4365;SDS011;2196;47.422;9.656;2024-01-10T06:06:53;48.40;;;23.67;;
4365;SDS011;2196;47.422;9.656;2024-01-10T06:09:21;48.73;;;26.20;;
4365;SDS011;2196;47.422;9.656;2024-01-10T06:11:48;44.00;;;24.53;;
4365;SDS011;2196;47.422;9.656;2024-01-10T06:14:15;47.90;;;24.83;;
4365;SDS011;2196;47.422;9.656;2024-01-10T06:16:42;53.40;;;25.63;;
4365;SDS011;2196;47.422;9.656;2024-01-10T06:19:10;46.47;;;24.40;;
4365;SDS011;2196;47.422;9.656;2024-01-10T06:21:37;52.60;;;27.00;;
4365;SDS011;2196;47.422;9.656;2024-01-10T06:24:04;48.33;;;24.53;;
4365;SDS011;2196;47.422;9.656;2024-01-10T06:26:33;51.03;;;26.17;;
4365;SDS011;2196;47.422;9.656;2024-01-10T06:29:00;60.97;;;25.40;;
4365;SDS011;2196;47.422;9.656;2024-01-10T06:31:27;49.90;;;24.93;;
4365;SDS011;2196;47.422;9.656;2024-01-10T06:33:54;50.33;;;24.83;;
4365;SDS011;2196;47.422;9.656;2024-01-10T06:36:24;48.70;;;25.23;;
4365;SDS011;2196;47.422;9.656;2024-01-10T06:38:51;46.53;;;25.23;;
4365;SDS011;2196;47.422;9.656;2024-01-10T06:41:20;47.70;;;23.43;;
4365;SDS011;2196;47.422;9.656;2024-01-10T06:43:50;48.77;;;24.27;;
4365;SDS011;2196;47.422;9.656;2024-01-10T06:46:18;51.70;;;24.93;;
4365;SDS011;2196;47.422;9.656;2024-01-10T06:48:45;55.53;;;25.97;;
4365;SDS011;2196;47.422;9.656;2024-01-10T06:51:12;50.73;;;24.60;;
4365;SDS011;2196;47.422;9.656;2024-01-10T06:53:40;53.80;;;26.47;;
4365;SDS011;2196;47.422;9.656;2024-01-10T06:56:07;50.07;;;24.33;;
4365;SDS011;2196;47.422;9.656;2024-01-10T06:58:36;51.33;;;24.33;;
4365;SDS011;2196;47.422;9.656;2024-01-10T07:01:04;45.90;;;24.67;;
4365;SDS011;2196;47.422;9.656;2024-01-10T07:03:31;52.87;;;26.37;;
4365;SDS011;2196;47.422;9.656;2024-01-10T07:05:59;52.30;;;26.50;;
4365;SDS011;2196;47.422;9.656;2024-01-10T07:08:26;56.57;;;25.93;;
4365;SDS011;2196;47.422;9.656;2024-01-10T07:10:55;48.60;;;25.23;;
4365;SDS011;2196;47.422;9.656;2024-01-10T07:13:22;47.97;;;23.80;;
4365;SDS011;2196;47.422;9.656;2024-01-10T07:15:49;48.03;;;24.03;;
4365;SDS011;2196;47.422;9.656;2024-01-10T07:18:19;51.53;;;24.80;;
4365;SDS011;2196;47.422;9.656;2024-01-10T07:20:45;54.80;;;26.73;;
4365;SDS011;2196;47.422;9.656;2024-01-10T07:23:12;54.13;;;26.63;;
4365;SDS011;2196;47.422;9.656;2024-01-10T07:25:39;52.27;;;26.47;;
4365;SDS011;2196;47.422;9.656;2024-01-10T07:28:06;50.70;;;24.83;;
4365;SDS011;2196;47.422;9.656;2024-01-10T07:30:33;47.27;;;24.00;;
4365;SDS011;2196;47.422;9.656;2024-01-10T07:33:00;51.67;;;25.23;;
4365;SDS011;2196;47.422;9.656;2024-01-10T07:35:28;48.23;;;23.93;;
4365;SDS011;2196;47.422;9.656;2024-01-10T07:37:55;52.60;;;25.80;;
4365;SDS011;2196;47.422;9.656;2024-01-10T07:40:22;51.00;;;24.17;;
4365;SDS011;2196;47.422;9.656;2024-01-10T07:42:49;55.30;;;25.77;;
4365;SDS011;2196;47.422;9.656;2024-01-10T07:45:16;54.13;;;26.67;;
4365;SDS011;2196;47.422;9.656;2024-01-10T07:47:43;52.97;;;26.77;;
4365;SDS011;2196;47.422;9.656;2024-01-10T07:50:11;46.83;;;24.73;;
4365;SDS011;2196;47.422;9.656;2024-01-10T07:52:42;47.03;;;26.30;;
4365;SDS011;2196;47.422;9.656;2024-01-10T07:55:11;48.90;;;24.13;;
4365;SDS011;2196;47.422;9.656;2024-01-10T07:57:38;56.87;;;27.67;;
4365;SDS011;2196;47.422;9.656;2024-01-10T08:00:07;56.70;;;27.77;;
4365;SDS011;2196;47.422;9.656;2024-01-10T08:02:35;54.03;;;25.43;;
4365;SDS011;2196;47.422;9.656;2024-01-10T08:05:02;54.93;;;27.70;;
4365;SDS011;2196;47.422;9.656;2024-01-10T08:07:33;54.73;;;26.63;;
4365;SDS011;2196;47.422;9.656;2024-01-10T08:10:03;47.70;;;24.40;;
4365;SDS011;2196;47.422;9.656;2024-01-10T08:12:30;52.03;;;25.67;;
4365;SDS011;2196;47.422;9.656;2024-01-10T08:14:57;51.07;;;26.80;;
4365;SDS011;2196;47.422;9.656;2024-01-10T08:17:24;52.50;;;26.73;;
4365;SDS011;2196;47.422;9.656;2024-01-10T08:19:51;55.80;;;26.20;;
4365;SDS011;2196;47.422;9.656;2024-01-10T08:22:18;52.13;;;27.50;;
4365;SDS011;2196;47.422;9.656;2024-01-10T08:24:47;50.83;;;27.63;;
4365;SDS011;2196;47.422;9.656;2024-01-10T08:27:15;51.30;;;26.57;;
4365;SDS011;2196;47.422;9.656;2024-01-10T08:29:43;49.27;;;24.90;;
4365;SDS011;2196;47.422;9.656;2024-01-10T08:32:10;61.27;;;27.40;;
4365;SDS011;2196;47.422;9.656;2024-01-10T08:34:37;61.93;;;28.40;;
4365;SDS011;2196;47.422;9.656;2024-01-10T08:37:06;53.77;;;27.90;;
4365;SDS011;2196;47.422;9.656;2024-01-10T08:39:34;52.05;;;29.23;;
4365;SDS011;2196;47.422;9.656;2024-01-10T08:42:01;57.57;;;27.90;;
4365;SDS011;2196;47.422;9.656;2024-01-10T08:44:29;55.93;;;29.33;;
4365;SDS011;2196;47.422;9.656;2024-01-10T08:46:59;56.20;;;28.13;;
4365;SDS011;2196;47.422;9.656;2024-01-10T08:49:26;50.87;;;27.33;;
4365;SDS011;2196;47.422;9.656;2024-01-10T08:51:53;50.00;;;27.23;;
4365;SDS011;2196;47.422;9.656;2024-01-10T08:54:20;50.77;;;26.57;;
4365;SDS011;2196;47.422;9.656;2024-01-10T08:56:47;52.00;;;27.20;;
4365;SDS011;2196;47.422;9.656;2024-01-10T08:59:15;62.50;;;27.77;;
4365;SDS011;2196;47.422;9.656;2024-01-10T09:01:45;51.37;;;28.23;;
4365;SDS011;2196;47.422;9.656;2024-01-10T09:04:13;55.27;;;28.20;;
4365;SDS011;2196;47.422;9.656;2024-01-10T09:06:40;55.77;;;26.87;;
4365;SDS011;2196;47.422;9.656;2024-01-10T09:09:07;55.77;;;26.17;;
4365;SDS011;2196;47.422;9.656;2024-01-10T09:11:34;62.37;;;25.87;;
4365;SDS011;2196;47.422;9.656;2024-01-10T09:14:01;53.43;;;28.03;;
4365;SDS011;2196;47.422;9.656;2024-01-10T09:16:28;61.93;;;28.80;;
4365;SDS011;2196;47.422;9.656;2024-01-10T09:18:57;55.87;;;25.63;;
4365;SDS011;2196;47.422;9.656;2024-01-10T09:21:25;52.10;;;27.70;;
4365;SDS011;2196;47.422;9.656;2024-01-10T09:23:52;54.08;;;29.83;;
4365;SDS011;2196;47.422;9.656;2024-01-10T09:26:20;58.50;;;27.37;;
4365;SDS011;2196;47.422;9.656;2024-01-10T09:28:47;47.63;;;24.47;;
4365;SDS011;2196;47.422;9.656;2024-01-10T09:31:15;56.30;;;27.53;;
4365;SDS011;2196;47.422;9.656;2024-01-10T09:33:42;61.73;;;28.93;;
4365;SDS011;2196;47.422;9.656;2024-01-10T09:36:11;45.87;;;22.67;;
4365;SDS011;2196;47.422;9.656;2024-01-10T09:38:38;54.17;;;25.27;;
4365;SDS011;2196;47.422;9.656;2024-01-10T09:41:05;53.50;;;25.83;;
4365;SDS011;2196;47.422;9.656;2024-01-10T09:43:32;49.40;;;25.83;;
4365;SDS011;2196;47.422;9.656;2024-01-10T09:46:00;52.07;;;24.33;;
4365;SDS011;2196;47.422;9.656;2024-01-10T09:48:28;51.93;;;24.73;;
4365;SDS011;2196;47.422;9.656;2024-01-10T09:50:56;51.73;;;26.63;;
4365;SDS011;2196;47.422;9.656;2024-01-10T09:53:25;52.10;;;23.77;;
4365;SDS011;2196;47.422;9.656;2024-01-10T09:55:55;51.07;;;24.47;;
4365;SDS011;2196;47.422;9.656;2024-01-10T09:58:22;60.50;;;27.93;;
4365;SDS011;2196;47.422;9.656;2024-01-10T10:00:50;46.60;;;23.10;;
4365;SDS011;2196;47.422;9.656;2024-01-10T10:03:17;54.67;;;25.20;;
4365;SDS011;2196;47.422;9.656;2024-01-10T10:05:45;53.40;;;26.23;;
4365;SDS011;2196;47.422;9.656;2024-01-10T10:08:13;54.90;;;25.00;;
4365;SDS011;2196;47.422;9.656;2024-01-10T10:10:46;60.80;;;25.77;;
4365;SDS011;2196;47.422;9.656;2024-01-10T10:13:23;51.77;;;25.93;;
4365;SDS011;2196;47.422;9.656;2024-01-10T10:15:57;54.47;;;26.87;;
4365;SDS011;2196;47.422;9.656;2024-01-10T10:18:25;51.97;;;25.47;;
4365;SDS011;2196;47.422;9.656;2024-01-10T10:21:06;51.90;;;25.37;;
4365;SDS011;2196;47.422;9.656;2024-01-10T10:23:34;47.47;;;25.23;;
4365;SDS011;2196;47.422;9.656;2024-01-10T10:26:11;54.63;;;25.60;;
4365;SDS011;2196;47.422;9.656;2024-01-10T10:28:44;48.17;;;23.03;;
4365;SDS011;2196;47.422;9.656;2024-01-10T10:31:11;56.07;;;24.67;;
4365;SDS011;2196;47.422;9.656;2024-01-10T10:33:39;53.97;;;24.63;;
4365;SDS011;2196;47.422;9.656;2024-01-10T10:36:06;43.77;;;22.93;;
4365;SDS011;2196;47.422;9.656;2024-01-10T10:38:33;50.07;;;24.87;;
4365;SDS011;2196;47.422;9.656;2024-01-10T10:41:01;55.33;;;25.57;;
4365;SDS011;2196;47.422;9.656;2024-01-10T10:43:34;55.77;;;26.53;;
4365;SDS011;2196;47.422;9.656;2024-01-10T10:46:02;53.03;;;25.73;;
4365;SDS011;2196;47.422;9.656;2024-01-10T10:48:32;57.53;;;26.97;;
4365;SDS011;2196;47.422;9.656;2024-01-10T10:51:03;46.93;;;25.40;;
4365;SDS011;2196;47.422;9.656;2024-01-10T10:53:33;47.57;;;24.90;;
4365;SDS011;2196;47.422;9.656;2024-01-10T10:56:02;54.23;;;26.67;;
4365;SDS011;2196;47.422;9.656;2024-01-10T10:58:31;49.27;;;26.17;;
4365;SDS011;2196;47.422;9.656;2024-01-10T11:01:05;53.10;;;24.97;;
4365;SDS011;2196;47.422;9.656;2024-01-10T11:03:34;57.15;;;27.38;;
4365;SDS011;2196;47.422;9.656;2024-01-10T11:06:03;50.73;;;28.07;;
4365;SDS011;2196;47.422;9.656;2024-01-10T11:08:31;51.27;;;24.70;;
4365;SDS011;2196;47.422;9.656;2024-01-10T11:11:02;55.40;;;26.20;;
4365;SDS011;2196;47.422;9.656;2024-01-10T11:13:37;53.60;;;26.33;;
4365;SDS011;2196;47.422;9.656;2024-01-10T11:16:21;57.13;;;26.93;;
4365;SDS011;2196;47.422;9.656;2024-01-10T11:18:55;45.57;;;23.93;;
4365;SDS011;2196;47.422;9.656;2024-01-10T11:21:42;52.13;;;24.97;;
4365;SDS011;2196;47.422;9.656;2024-01-10T11:24:22;55.50;;;28.33;;
4365;SDS011;2196;47.422;9.656;2024-01-10T11:26:49;51.90;;;26.53;;
4365;SDS011;2196;47.422;9.656;2024-01-10T11:29:18;50.90;;;27.10;;
4365;SDS011;2196;47.422;9.656;2024-01-10T11:31:50;54.17;;;27.70;;
4365;SDS011;2196;47.422;9.656;2024-01-10T11:34:22;54.57;;;27.93;;
4365;SDS011;2196;47.422;9.656;2024-01-10T11:39:37;54.13;;;24.50;;
4365;SDS011;2196;47.422;9.656;2024-01-10T11:42:07;62.13;;;29.80;;
4365;SDS011;2196;47.422;9.656;2024-01-10T11:44:36;61.60;;;29.03;;
4365;SDS011;2196;47.422;9.656;2024-01-10T11:47:14;59.73;;;29.57;;
4365;SDS011;2196;47.422;9.656;2024-01-10T11:49:53;56.40;;;27.77;;
4365;SDS011;2196;47.422;9.656;2024-01-10T11:52:21;55.50;;;25.03;;
4365;SDS011;2196;47.422;9.656;2024-01-10T11:54:48;54.83;;;28.23;;
4365;SDS011;2196;47.422;9.656;2024-01-10T11:57:19;49.00;;;27.17;;
4365;SDS011;2196;47.422;9.656;2024-01-10T11:59:49;50.70;;;26.60;;
4365;SDS011;2196;47.422;9.656;2024-01-10T12:02:18;54.80;;;26.87;;
4365;SDS011;2196;47.422;9.656;2024-01-10T12:04:45;53.40;;;26.20;;
4365;SDS011;2196;47.422;9.656;2024-01-10T12:07:13;51.03;;;26.30;;
4365;SDS011;2196;47.422;9.656;2024-01-10T12:09:41;52.47;;;26.23;;
4365;SDS011;2196;47.422;9.656;2024-01-10T12:12:08;49.63;;;26.23;;
4365;SDS011;2196;47.422;9.656;2024-01-10T12:14:36;62.37;;;27.67;;
4365;SDS011;2196;47.422;9.656;2024-01-10T12:17:05;57.13;;;27.10;;
4365;SDS011;2196;47.422;9.656;2024-01-10T12:19:33;57.78;;;30.27;;
4365;SDS011;2196;47.422;9.656;2024-01-10T12:22:04;55.40;;;27.87;;
4365;SDS011;2196;47.422;9.656;2024-01-10T12:24:31;66.47;;;27.30;;
4365;SDS011;2196;47.422;9.656;2024-01-10T12:26:58;60.83;;;28.13;;
4365;SDS011;2196;47.422;9.656;2024-01-10T12:29:25;51.67;;;25.00;;
4365;SDS011;2196;47.422;9.656;2024-01-10T12:31:53;58.60;;;27.20;;
4365;SDS011;2196;47.422;9.656;2024-01-10T12:34:21;57.27;;;27.07;;
4365;SDS011;2196;47.422;9.656;2024-01-10T12:36:48;53.60;;;27.73;;
4365;SDS011;2196;47.422;9.656;2024-01-10T12:39:15;55.60;;;27.03;;
4365;SDS011;2196;47.422;9.656;2024-01-10T12:41:42;51.20;;;27.03;;
4365;SDS011;2196;47.422;9.656;2024-01-10T12:44:10;51.70;;;25.17;;
4365;SDS011;2196;47.422;9.656;2024-01-10T12:46:48;49.23;;;24.47;;
4365;SDS011;2196;47.422;9.656;2024-01-10T12:49:17;49.50;;;25.93;;
4365;SDS011;2196;47.422;9.656;2024-01-10T12:51:46;49.53;;;25.00;;
4365;SDS011;2196;47.422;9.656;2024-01-10T12:54:14;46.13;;;25.77;;
4365;SDS011;2196;47.422;9.656;2024-01-10T12:56:42;49.27;;;24.47;;
4365;SDS011;2196;47.422;9.656;2024-01-10T12:59:09;56.17;;;26.97;;
4365;SDS011;2196;47.422;9.656;2024-01-10T13:01:36;46.60;;;23.87;;
4365;SDS011;2196;47.422;9.656;2024-01-10T13:04:03;51.87;;;25.47;;
4365;SDS011;2196;47.422;9.656;2024-01-10T13:06:30;50.97;;;26.63;;
4365;SDS011;2196;47.422;9.656;2024-01-10T13:08:58;60.83;;;28.33;;
4365;SDS011;2196;47.422;9.656;2024-01-10T13:11:25;54.93;;;25.17;;
4365;SDS011;2196;47.422;9.656;2024-01-10T13:13:52;53.07;;;25.47;;
4365;SDS011;2196;47.422;9.656;2024-01-10T13:16:19;51.33;;;26.20;;
4365;SDS011;2196;47.422;9.656;2024-01-10T13:18:46;52.20;;;25.43;;
4365;SDS011;2196;47.422;9.656;2024-01-10T13:21:15;45.70;;;25.23;;
4365;SDS011;2196;47.422;9.656;2024-01-10T13:23:42;46.37;;;25.60;;
4365;SDS011;2196;47.422;9.656;2024-01-10T13:26:12;51.33;;;26.43;;
4365;SDS011;2196;47.422;9.656;2024-01-10T13:28:40;55.97;;;27.60;;
4365;SDS011;2196;47.422;9.656;2024-01-10T13:31:07;48.97;;;26.27;;
4365;SDS011;2196;47.422;9.656;2024-01-10T13:33:34;48.10;;;27.93;;
4365;SDS011;2196;47.422;9.656;2024-01-10T13:36:02;47.30;;;24.63;;
4365;SDS011;2196;47.422;9.656;2024-01-10T13:38:29;50.90;;;25.73;;
4365;SDS011;2196;47.422;9.656;2024-01-10T13:40:56;51.43;;;26.60;;
4365;SDS011;2196;47.422;9.656;2024-01-10T13:43:25;47.50;;;25.87;;
4365;SDS011;2196;47.422;9.656;2024-01-10T13:45:52;53.13;;;24.90;;
4365;SDS011;2196;47.422;9.656;2024-01-10T13:48:19;48.73;;;24.87;;
4365;SDS011;2196;47.422;9.656;2024-01-10T13:50:45;49.77;;;25.57;;
4365;SDS011;2196;47.422;9.656;2024-01-10T13:53:12;44.40;;;25.27;;
4365;SDS011;2196;47.422;9.656;2024-01-10T13:55:39;51.47;;;25.07;;
4365;SDS011;2196;47.422;9.656;2024-01-10T13:58:06;47.20;;;25.60;;
4365;SDS011;2196;47.422;9.656;2024-01-10T14:00:36;45.33;;;25.10;;
4365;SDS011;2196;47.422;9.656;2024-01-10T14:03:04;46.20;;;23.67;;
4365;SDS011;2196;47.422;9.656;2024-01-10T14:05:31;46.37;;;25.07;;
4365;SDS011;2196;47.422;9.656;2024-01-10T14:07:58;49.40;;;25.97;;
4365;SDS011;2196;47.422;9.656;2024-01-10T14:10:25;48.87;;;24.93;;
4365;SDS011;2196;47.422;9.656;2024-01-10T14:12:52;49.73;;;24.37;;
4365;SDS011;2196;47.422;9.656;2024-01-10T14:15:19;50.07;;;27.13;;
4365;SDS011;2196;47.422;9.656;2024-01-10T14:17:48;50.90;;;26.03;;
4365;SDS011;2196;47.422;9.656;2024-01-10T14:20:16;43.33;;;23.60;;
4365;SDS011;2196;47.422;9.656;2024-01-10T14:22:43;46.83;;;25.53;;
4365;SDS011;2196;47.422;9.656;2024-01-10T14:25:10;51.77;;;26.17;;
4365;SDS011;2196;47.422;9.656;2024-01-10T14:27:37;51.33;;;25.23;;
4365;SDS011;2196;47.422;9.656;2024-01-10T14:30:05;47.23;;;23.80;;
4365;SDS011;2196;47.422;9.656;2024-01-10T14:32:34;48.97;;;24.47;;
4365;SDS011;2196;47.422;9.656;2024-01-10T14:35:04;51.47;;;25.83;;
4365;SDS011;2196;47.422;9.656;2024-01-10T14:37:31;55.07;;;25.37;;
4365;SDS011;2196;47.422;9.656;2024-01-10T14:40:01;46.67;;;22.07;;
4365;SDS011;2196;47.422;9.656;2024-01-10T14:42:28;51.93;;;24.83;;
4365;SDS011;2196;47.422;9.656;2024-01-10T14:44:55;44.20;;;24.10;;
4365;SDS011;2196;47.422;9.656;2024-01-10T14:47:23;51.93;;;27.47;;
4365;SDS011;2196;47.422;9.656;2024-01-10T14:49:50;55.57;;;28.27;;
4365;SDS011;2196;47.422;9.656;2024-01-10T14:52:18;50.63;;;25.13;;
4365;SDS011;2196;47.422;9.656;2024-01-10T14:54:46;51.37;;;24.77;;